createdAt,value
2022-12-07T00:00:27.901Z,44.88
2022-12-07T00:05:31.656Z,45.03
2022-12-07T00:10:36.633Z,44.91
2022-12-07T00:15:39.406Z,44.88
2022-12-07T00:20:42.221Z,45.10
2022-12-07T00:25:46.713Z,45.09
2022-12-07T00:30:49.704Z,45.21
2022-12-07T00:35:57.544Z,45.38
2022-12-07T00:41:02.729Z,45.47
2022-12-07T00:46:06.007Z,45.81
2022-12-07T00:51:08.924Z,45.80
2022-12-07T00:56:14.716Z,46.05
2022-12-07T01:01:17.673Z,45.71
2022-12-07T01:06:21.353Z,45.88
2022-12-07T01:11:26.466Z,45.89
2022-12-07T01:16:30.172Z,46.03
2022-12-07T01:21:35.671Z,46.49
2022-12-07T01:26:39.978Z,46.57
2022-12-07T01:31:42.711Z,46.38
2022-12-07T01:36:45.488Z,46.86
2022-12-07T01:41:49.621Z,46.93
2022-12-07T01:46:53.038Z,46.97
2022-12-07T01:51:59.022Z,46.60
2022-12-07T01:57:03.181Z,47.14
2022-12-07T02:02:06.807Z,47.11
2022-12-07T02:07:09.624Z,47.39
2022-12-07T02:12:13.756Z,47.50
2022-12-07T02:17:18.472Z,47.71
2022-12-07T02:22:32.362Z,47.94
2022-12-07T02:27:40.032Z,48.10
2022-12-07T02:32:46.908Z,48.29
2022-12-07T02:37:55.185Z,48.48
2022-12-07T02:43:02.367Z,48.76
2022-12-07T02:48:06.872Z,48.75
2022-12-07T02:53:31.190Z,49.19
2022-12-07T02:58:37.775Z,49.26
2022-12-07T03:03:41.877Z,49.35
2022-12-07T03:08:49.777Z,49.54
2022-12-07T03:13:55.281Z,49.96
2022-12-07T03:19:01.103Z,49.91
2022-12-07T03:24:06.518Z,50.08
2022-12-07T03:29:11.300Z,50.33
2022-12-07T03:34:17.144Z,50.13
2022-12-07T03:39:23.681Z,50.31
2022-12-07T03:44:26.446Z,50.55
2022-12-07T03:49:32.961Z,50.83
2022-12-07T03:54:38.416Z,50.65
2022-12-07T03:59:41.287Z,50.97
2022-12-07T04:04:45.444Z,51.03
2022-12-07T04:09:48.211Z,51.16
2022-12-07T04:14:50.993Z,51.09
2022-12-07T04:19:55.638Z,51.72
2022-12-07T04:24:58.463Z,51.56
2022-12-07T04:30:01.628Z,51.63
2022-12-07T04:35:06.927Z,51.87
2022-12-07T04:40:12.039Z,51.25
2022-12-07T04:45:14.827Z,51.48
2022-12-07T04:50:19.072Z,51.62
2022-12-07T04:55:21.845Z,51.26
2022-12-07T05:00:24.787Z,51.49
2022-12-07T05:05:28.966Z,51.47
2022-12-07T05:10:31.684Z,51.77
2022-12-07T05:15:34.436Z,51.65
2022-12-07T05:20:42.428Z,51.49
2022-12-07T05:25:45.891Z,51.53
2022-12-07T05:30:48.642Z,51.22
2022-12-07T05:35:52.737Z,51.54
2022-12-07T05:40:55.636Z,51.38
2022-12-07T05:45:58.420Z,51.33
2022-12-07T05:51:02.740Z,51.46
2022-12-07T05:56:06.232Z,51.61
2022-12-07T06:01:09.080Z,51.32
2022-12-07T06:06:13.374Z,51.37
2022-12-07T06:11:33.834Z,51.50
2022-12-07T06:16:36.869Z,51.71
2022-12-07T06:21:41.276Z,51.64
2022-12-07T06:26:44.135Z,51.58
2022-12-07T06:31:46.988Z,51.46
2022-12-07T06:36:52.840Z,51.48
2022-12-07T06:41:55.878Z,51.33
2022-12-07T06:47:25.138Z,51.43
2022-12-07T06:52:22.778Z,51.21
2022-12-07T06:57:25.572Z,51.50
2022-12-07T07:02:28.500Z,51.58
2022-12-07T07:07:41.700Z,51.40
2022-12-07T07:12:57.424Z,51.54
2022-12-07T07:18:06.083Z,51.58
2022-12-07T07:23:11.935Z,51.58
2022-12-07T07:28:15.005Z,51.77
2022-12-07T07:33:17.778Z,51.47
2022-12-07T07:38:21.941Z,51.53
2022-12-07T07:43:24.758Z,51.67
2022-12-07T07:48:27.501Z,52.18
2022-12-07T07:53:31.772Z,51.97
2022-12-07T07:58:34.541Z,51.93
2022-12-07T08:03:37.589Z,51.68
2022-12-07T08:08:41.722Z,51.38
2022-12-07T08:13:44.539Z,50.51
2022-12-07T08:18:47.331Z,49.50
2022-12-07T08:23:51.593Z,49.33
2022-12-07T08:28:54.972Z,49.06
2022-12-07T08:33:58.188Z,48.79
2022-12-07T08:39:30.280Z,48.75
2022-12-07T08:44:25.424Z,48.90
2022-12-07T08:49:29.313Z,48.88
2022-12-07T08:54:33.596Z,48.88
2022-12-07T08:59:36.942Z,48.70
2022-12-07T09:04:39.722Z,48.93
2022-12-07T09:09:43.916Z,48.83
2022-12-07T09:14:46.738Z,49.00
2022-12-07T09:19:49.513Z,49.26
2022-12-07T09:24:53.776Z,49.29
2022-12-07T09:29:56.639Z,46.97
2022-12-07T09:34:59.415Z,49.49
2022-12-07T09:40:04.105Z,52.00
2022-12-07T09:45:07.941Z,51.32
2022-12-07T09:50:15.155Z,46.53
2022-12-07T09:55:26.706Z,44.43
2022-12-07T10:00:29.582Z,43.29
2022-12-07T10:05:33.266Z,42.95
2022-12-07T10:10:39.529Z,42.90
2022-12-07T10:15:47.890Z,42.54
2022-12-07T10:20:50.692Z,42.88
2022-12-07T10:25:55.980Z,42.61
2022-12-07T10:31:00.178Z,42.67
2022-12-07T10:36:11.360Z,42.60
2022-12-07T10:41:15.515Z,42.84
2022-12-07T10:46:54.898Z,42.59
2022-12-07T10:52:00.351Z,42.76
2022-12-07T10:57:10.145Z,42.78
2022-12-07T11:02:25.208Z,42.49
2022-12-07T11:07:33.024Z,42.74
2022-12-07T11:12:45.157Z,42.67
2022-12-07T11:17:50.984Z,42.96
2022-12-07T11:22:57.027Z,42.73
2022-12-07T11:28:08.963Z,43.07
2022-12-07T11:33:17.477Z,43.15
2022-12-07T11:38:26.207Z,43.04
2022-12-07T11:43:33.995Z,43.34
2022-12-07T11:48:39.424Z,43.24
2022-12-07T11:53:43.861Z,43.33
2022-12-07T11:58:53.422Z,43.64
2022-12-07T12:03:58.104Z,43.44
2022-12-07T12:14:36.697Z,43.55
2022-12-07T12:19:40.553Z,43.69
2022-12-07T12:24:43.496Z,43.85
2022-12-07T12:29:47.652Z,43.97
2022-12-07T12:35:05.501Z,44.08
2022-12-07T12:40:51.030Z,44.18
2022-12-07T12:46:05.327Z,44.31
2022-12-07T12:51:38.696Z,44.32
2022-12-07T12:56:42.786Z,44.33
2022-12-07T13:01:48.071Z,44.42
2022-12-07T13:06:51.048Z,44.44
2022-12-07T13:11:58.831Z,45.35
2022-12-07T13:17:03.084Z,46.05
2022-12-07T13:22:27.350Z,46.75
2022-12-07T13:27:30.147Z,46.75
2022-12-07T13:32:34.212Z,46.89
2022-12-07T13:37:38.940Z,47.23
2022-12-07T13:42:41.840Z,47.74
2022-12-07T13:47:48.904Z,47.97
2022-12-07T13:52:51.717Z,48.39
2022-12-07T13:57:55.137Z,48.43
2022-12-07T14:03:00.364Z,48.44
2022-12-07T14:08:04.286Z,47.95
2022-12-07T14:13:27.728Z,47.45
2022-12-07T14:18:32.648Z,47.47
2022-12-07T14:23:35.551Z,47.88
2022-12-07T14:28:39.073Z,48.49
2022-12-07T14:33:43.186Z,48.40
2022-12-07T14:38:46.046Z,48.58
2022-12-07T14:44:21.350Z,48.29
2022-12-07T14:54:36.374Z,48.02
2022-12-07T14:59:43.305Z,47.74
2022-12-07T15:04:49.469Z,47.72
2022-12-07T15:09:52.572Z,47.36
2022-12-07T15:14:56.531Z,46.93
2022-12-07T15:20:00.929Z,47.01
2022-12-07T15:25:05.388Z,47.27
2022-12-07T15:30:09.630Z,47.11
2022-12-07T15:35:14.091Z,47.06
2022-12-07T15:40:17.363Z,47.14
2022-12-07T15:45:20.227Z,46.94
2022-12-07T15:50:24.603Z,47.09
2022-12-07T15:55:27.521Z,47.13
2022-12-07T16:00:30.628Z,47.09
2022-12-07T16:05:35.481Z,47.09
2022-12-07T16:10:38.307Z,47.15
2022-12-07T16:15:41.195Z,47.33
2022-12-07T16:20:45.381Z,47.38
2022-12-07T16:25:48.255Z,47.54
2022-12-07T16:30:51.154Z,47.82
2022-12-07T16:35:55.405Z,47.52
2022-12-07T16:40:58.239Z,47.14
2022-12-07T16:46:01.103Z,46.79
2022-12-07T16:51:06.383Z,46.94
2022-12-07T16:56:12.036Z,46.76
2022-12-07T17:01:16.439Z,46.45
2022-12-07T17:06:21.732Z,46.74
2022-12-07T17:11:25.648Z,46.24
2022-12-07T17:16:28.572Z,45.95
2022-12-07T17:21:33.029Z,45.80
2022-12-07T17:26:36.379Z,45.10
2022-12-07T17:31:39.235Z,44.97
2022-12-07T17:36:43.695Z,44.57
2022-12-07T17:42:04.158Z,44.76
2022-12-07T17:47:07.970Z,44.55
2022-12-07T17:52:29.718Z,44.16
2022-12-07T17:57:32.467Z,44.21
2022-12-07T18:02:35.292Z,43.94
2022-12-07T18:07:39.683Z,44.00
2022-12-07T18:12:46.293Z,43.83
2022-12-07T18:17:51.993Z,43.98
2022-12-07T18:22:56.444Z,43.80
2022-12-07T18:27:59.216Z,43.61
2022-12-07T18:33:02.212Z,43.47
2022-12-07T18:38:06.489Z,42.88
2022-12-07T18:43:09.352Z,42.81
2022-12-07T18:48:12.130Z,42.71
2022-12-07T18:53:16.293Z,42.55
2022-12-07T18:58:19.118Z,42.70
2022-12-07T19:03:22.190Z,42.43
2022-12-07T19:08:26.526Z,42.39
2022-12-07T19:13:29.447Z,42.06
2022-12-07T19:18:32.909Z,42.63
2022-12-07T19:23:37.296Z,42.94
2022-12-07T19:28:40.235Z,43.63
2022-12-07T19:33:43.218Z,43.73
2022-12-07T19:38:47.297Z,43.84
2022-12-07T19:43:50.053Z,43.95
2022-12-07T19:48:53.001Z,43.38
2022-12-07T19:53:58.465Z,43.66
2022-12-07T19:59:01.931Z,43.70
2022-12-07T20:04:05.733Z,43.85
2022-12-07T20:09:09.973Z,43.41
2022-12-07T20:14:13.029Z,43.35
2022-12-07T20:19:16.050Z,43.50
2022-12-07T20:24:22.609Z,43.62
2022-12-07T20:29:26.088Z,43.53
2022-12-07T20:34:28.934Z,43.45
2022-12-07T20:39:33.751Z,43.56
2022-12-07T20:44:36.948Z,43.32
2022-12-07T20:49:39.848Z,43.40
2022-12-07T20:54:44.378Z,43.49
2022-12-07T20:59:47.315Z,43.45
2022-12-07T21:04:50.060Z,43.28
2022-12-07T21:09:54.508Z,43.30
2022-12-07T21:14:57.292Z,43.23
2022-12-07T21:20:00.201Z,43.26
2022-12-07T21:25:04.888Z,43.38
2022-12-07T21:30:09.050Z,43.48
2022-12-07T21:35:11.922Z,43.45
2022-12-07T21:40:17.053Z,43.23
2022-12-07T21:45:20.183Z,43.37
2022-12-07T21:50:23.033Z,42.78
2022-12-07T21:55:27.346Z,43.17
2022-12-07T22:00:30.787Z,43.48
2022-12-07T22:05:34.199Z,43.33
2022-12-07T22:10:38.374Z,43.49
2022-12-07T22:15:41.664Z,43.51
2022-12-07T22:20:44.699Z,43.70
2022-12-07T22:25:49.019Z,43.56
2022-12-07T22:30:51.901Z,43.57
2022-12-07T22:35:54.831Z,43.87
2022-12-07T22:40:59.149Z,43.64
2022-12-07T22:46:02.023Z,43.79
2022-12-07T22:51:05.196Z,43.71
2022-12-07T22:56:09.642Z,44.04
2022-12-07T23:01:13.082Z,43.90
2022-12-07T23:06:17.648Z,43.88
2022-12-07T23:11:40.340Z,43.78
2022-12-07T23:16:43.147Z,43.95
2022-12-07T23:21:45.951Z,44.32
2022-12-07T23:26:50.275Z,44.29
2022-12-07T23:31:53.264Z,44.43
2022-12-07T23:36:56.240Z,44.25
2022-12-07T23:42:00.299Z,44.28
2022-12-07T23:47:03.175Z,44.25
2022-12-07T23:52:06.153Z,44.58
2022-12-07T23:57:10.281Z,44.42
